createdAt,value
2023-04-15T00:01:50.321Z,65.49
2023-04-15T00:04:37.592Z,65.51
2023-04-15T00:07:24.243Z,65.28
2023-04-15T00:10:11.050Z,65.65
2023-04-15T00:12:57.670Z,65.32
2023-04-15T00:15:44.082Z,65.75
2023-04-15T00:18:31.793Z,65.91
2023-04-15T00:21:18.554Z,66.05
2023-04-15T00:24:05.372Z,66.05
2023-04-15T00:26:51.674Z,66.14
2023-04-15T00:29:38.219Z,66.40
2023-04-15T00:32:24.689Z,66.27
2023-04-15T00:35:11.725Z,66.83
2023-04-15T00:37:59.821Z,66.62
2023-04-15T00:40:46.390Z,66.65
2023-04-15T00:43:32.835Z,67.29
2023-04-15T00:46:21.456Z,67.30
2023-04-15T00:49:07.905Z,67.20
2023-04-15T00:51:54.624Z,67.72
2023-04-15T00:54:41.440Z,67.59
2023-04-15T00:57:28.893Z,67.75
2023-04-15T01:00:16.633Z,67.94
2023-04-15T01:03:03.442Z,67.80
2023-04-15T01:05:50.436Z,68.09
2023-04-15T01:08:36.928Z,68.38
2023-04-15T01:11:24.195Z,68.11
2023-04-15T01:14:11.331Z,68.24
2023-04-15T01:16:57.876Z,68.23
2023-04-15T01:19:44.202Z,68.03
2023-04-15T01:22:33.407Z,68.17
2023-04-15T01:25:20.650Z,68.50
2023-04-15T01:28:07.397Z,68.50
2023-04-15T01:31:27.378Z,68.56
2023-04-15T01:34:14.385Z,68.45
2023-04-15T01:37:01.306Z,68.43
2023-04-15T01:39:48.187Z,68.49
2023-04-15T01:42:37.641Z,68.33
2023-04-15T01:45:24.230Z,68.51
2023-04-15T01:48:10.549Z,68.26
2023-04-15T01:50:58.378Z,68.27
2023-04-15T01:53:44.757Z,68.42
2023-04-15T01:56:31.108Z,68.44
2023-04-15T01:59:17.925Z,68.63
2023-04-15T02:02:05.588Z,68.67
2023-04-15T02:04:52.138Z,68.64
2023-04-15T02:07:38.880Z,68.75
2023-04-15T02:10:25.738Z,68.78
2023-04-15T02:13:12.224Z,68.78
2023-04-15T02:15:59.820Z,68.99
2023-04-15T02:18:47.125Z,68.41
2023-04-15T02:21:33.414Z,68.69
2023-04-15T02:24:19.830Z,68.88
2023-04-15T02:27:06.337Z,68.92
2023-04-15T02:29:53.084Z,68.92
2023-04-15T02:32:40.861Z,68.69
2023-04-15T02:35:27.825Z,68.30
2023-04-15T02:38:16.805Z,68.54
2023-04-15T02:41:03.656Z,68.59
2023-04-15T02:43:50.328Z,68.40
2023-04-15T02:46:37.298Z,68.06
2023-04-15T02:49:25.264Z,67.96
2023-04-15T02:52:11.675Z,68.09
2023-04-15T02:55:00.824Z,67.78
2023-04-15T02:57:47.239Z,68.03
2023-04-15T03:00:33.652Z,68.32
2023-04-15T03:03:20.474Z,67.83
2023-04-15T03:06:07.083Z,67.82
2023-04-15T03:08:54.061Z,67.68
2023-04-15T03:11:42.248Z,67.88
2023-04-15T03:14:29.628Z,68.03
2023-04-15T03:17:16.556Z,67.93
2023-04-15T03:20:05.810Z,67.63
2023-04-15T03:22:52.811Z,67.74
2023-04-15T03:25:40.631Z,67.72
2023-04-15T03:28:27.388Z,67.81
2023-04-15T03:31:15.563Z,67.80
2023-04-15T03:34:02.508Z,67.86
2023-04-15T03:36:49.213Z,67.71
2023-04-15T03:39:35.815Z,67.84
2023-04-15T03:42:22.279Z,67.40
2023-04-15T03:45:10.030Z,67.60
2023-04-15T03:48:03.608Z,67.73
2023-04-15T03:50:58.209Z,67.47
2023-04-15T03:53:44.822Z,67.36
2023-04-15T03:56:31.419Z,67.70
2023-04-15T03:59:17.923Z,67.73
2023-04-15T04:02:04.620Z,67.79
2023-04-15T04:04:51.966Z,67.80
2023-04-15T04:07:38.869Z,67.26
2023-04-15T04:10:25.775Z,67.67
2023-04-15T04:13:12.275Z,67.69
2023-04-15T04:15:58.870Z,67.72
2023-04-15T04:18:45.112Z,67.67
2023-04-15T04:21:34.204Z,67.51
2023-04-15T04:24:20.738Z,67.53
2023-04-15T04:27:07.444Z,67.24
2023-04-15T04:29:54.095Z,67.64
2023-04-15T04:32:40.914Z,67.87
2023-04-15T04:35:27.512Z,67.57
2023-04-15T04:38:13.880Z,67.50
2023-04-15T04:41:00.741Z,67.38
2023-04-15T04:43:47.252Z,67.42
2023-04-15T04:46:33.996Z,67.24
2023-04-15T04:49:20.542Z,67.31
2023-04-15T04:52:07.268Z,67.64
2023-04-15T04:54:53.632Z,67.50
2023-04-15T04:57:40.424Z,67.39
2023-04-15T05:00:26.896Z,67.24
2023-04-15T05:03:13.404Z,67.18
2023-04-15T05:06:00.788Z,67.35
2023-04-15T05:08:47.141Z,67.52
2023-04-15T05:11:33.762Z,67.21
2023-04-15T05:14:21.130Z,67.47
2023-04-15T05:17:09.091Z,67.48
2023-04-15T05:19:55.403Z,67.27
2023-04-15T05:22:42.248Z,67.16
2023-04-15T05:25:29.274Z,67.47
2023-04-15T05:28:15.807Z,67.33
2023-04-15T05:31:02.756Z,67.37
2023-04-15T05:33:49.347Z,67.17
2023-04-15T05:36:36.853Z,67.52
2023-04-15T05:39:23.380Z,67.36
2023-04-15T05:42:09.803Z,67.28
2023-04-15T05:44:56.399Z,67.26
2023-04-15T05:47:43.210Z,67.48
2023-04-15T05:50:29.620Z,67.40
2023-04-15T05:53:15.927Z,67.38
2023-04-15T05:56:02.530Z,67.47
2023-04-15T05:58:49.309Z,67.67
2023-04-15T06:01:36.207Z,67.59
2023-04-15T06:04:23.016Z,67.97
2023-04-15T06:07:10.354Z,68.14
2023-04-15T06:09:57.607Z,68.64
2023-04-15T06:12:44.288Z,68.23
2023-04-15T06:15:31.747Z,68.81
2023-04-15T06:18:18.755Z,69.65
2023-04-15T06:21:05.992Z,69.69
2023-04-15T06:23:53.294Z,70.52
2023-04-15T06:26:40.025Z,71.16
2023-04-15T06:29:26.733Z,71.78
2023-04-15T06:32:13.453Z,72.65
2023-04-15T06:35:00.455Z,73.08
2023-04-15T06:37:46.967Z,73.30
2023-04-15T06:40:33.632Z,73.53
2023-04-15T06:43:20.917Z,73.25
2023-04-15T06:46:07.725Z,73.60
2023-04-15T06:48:54.049Z,73.78
2023-04-15T06:51:42.750Z,74.43
2023-04-15T06:54:29.520Z,74.19
2023-04-15T06:57:16.184Z,75.14
2023-04-15T07:00:05.804Z,74.78
2023-04-15T07:02:52.935Z,74.70
2023-04-15T07:05:39.677Z,74.76
2023-04-15T07:08:26.538Z,75.00
2023-04-15T07:11:13.151Z,75.07
2023-04-15T07:13:59.717Z,75.02
2023-04-15T07:16:46.248Z,75.10
2023-04-15T07:19:33.078Z,75.45
2023-04-15T07:22:19.743Z,75.09
2023-04-15T07:25:07.571Z,75.29
2023-04-15T07:27:54.265Z,75.19
2023-04-15T07:30:40.681Z,75.37
2023-04-15T07:33:27.337Z,75.46
2023-04-15T07:36:14.142Z,75.39
2023-04-15T07:39:03.536Z,75.36
2023-04-15T07:41:50.438Z,75.30
2023-04-15T07:44:37.534Z,75.50
2023-04-15T07:47:24.195Z,75.46
2023-04-15T07:50:11.603Z,75.81
2023-04-15T07:52:58.518Z,76.10
2023-04-15T07:55:45.368Z,75.81
2023-04-15T07:58:31.693Z,76.07
2023-04-15T08:01:18.538Z,75.75
2023-04-15T08:04:05.561Z,76.11
2023-04-15T08:06:52.699Z,75.98
2023-04-15T08:09:39.541Z,75.87
2023-04-15T08:12:26.427Z,76.02
2023-04-15T08:15:13.580Z,75.91
2023-04-15T08:18:03.050Z,75.95
2023-04-15T08:20:49.640Z,75.97
2023-04-15T08:23:36.293Z,75.79
2023-04-15T08:26:22.975Z,75.78
2023-04-15T08:29:10.061Z,75.46
2023-04-15T08:31:56.985Z,75.41
2023-04-15T08:34:44.877Z,75.37
2023-04-15T08:37:31.278Z,75.48
2023-04-15T08:40:18.158Z,75.04
2023-04-15T08:43:06.112Z,75.00
2023-04-15T08:45:53.071Z,74.87
2023-04-15T08:48:40.792Z,74.62
2023-04-15T08:51:29.859Z,74.93
2023-04-15T08:54:16.492Z,75.10
2023-04-15T08:57:04.020Z,75.03
2023-04-15T08:59:51.106Z,74.97
2023-04-15T09:02:37.779Z,75.12
2023-04-15T09:05:24.507Z,74.97
2023-04-15T09:08:11.305Z,75.25
2023-04-15T09:10:58.054Z,74.80
2023-04-15T09:13:44.572Z,74.81
2023-04-15T09:16:31.903Z,75.18
2023-04-15T09:19:23.206Z,75.04
2023-04-15T09:22:09.906Z,74.90
2023-04-15T09:24:56.341Z,74.94
2023-04-15T09:27:54.103Z,74.60
2023-04-15T09:30:46.644Z,74.99
2023-04-15T09:33:33.399Z,74.99
2023-04-15T09:36:19.925Z,74.99
2023-04-15T09:39:07.196Z,74.69
2023-04-15T09:42:07.668Z,74.93
2023-04-15T09:44:54.175Z,74.50
2023-04-15T09:47:41.383Z,74.61
2023-04-15T09:50:32.189Z,74.13
2023-04-15T09:53:20.625Z,73.73
2023-04-15T09:56:11.108Z,73.72
2023-04-15T09:58:59.176Z,73.57
2023-04-15T10:01:46.534Z,73.77
2023-04-15T10:04:36.662Z,73.34
2023-04-15T10:07:23.966Z,73.25
2023-04-15T10:10:11.532Z,72.92
2023-04-15T10:12:58.007Z,73.06
2023-04-15T10:15:47.517Z,72.80
2023-04-15T10:18:38.133Z,72.11
2023-04-15T10:21:24.881Z,71.76
2023-04-15T10:24:12.371Z,72.14
2023-04-15T10:27:00.635Z,71.72
2023-04-15T10:29:49.509Z,71.63
2023-04-15T10:32:37.257Z,72.04
2023-04-15T10:35:24.591Z,71.67
2023-04-15T10:38:33.793Z,72.01
2023-04-15T10:41:26.934Z,72.42
2023-04-15T10:44:13.723Z,72.53
2023-04-15T10:47:00.660Z,72.61
2023-04-15T10:49:50.506Z,72.61
2023-04-15T10:52:44.126Z,72.24
2023-04-15T10:55:34.735Z,72.78
2023-04-15T10:58:26.224Z,72.92
2023-04-15T11:01:13.550Z,72.69
2023-04-15T11:04:00.030Z,72.42
2023-04-15T11:06:46.611Z,72.12
2023-04-15T11:09:34.601Z,72.06
2023-04-15T11:12:21.837Z,71.49
2023-04-15T11:15:33.614Z,70.83
2023-04-15T11:18:22.994Z,71.41
2023-04-15T11:21:09.774Z,71.51
2023-04-15T11:23:56.758Z,71.57
2023-04-15T11:26:43.356Z,71.49
2023-04-15T11:29:33.298Z,71.59
2023-04-15T11:32:21.700Z,72.03
2023-04-15T11:35:08.174Z,72.29
2023-04-15T11:37:55.863Z,72.25
2023-04-15T11:40:46.224Z,72.14
2023-04-15T11:43:35.423Z,72.43
2023-04-15T11:46:23.091Z,72.53
2023-04-15T11:49:09.677Z,72.91
2023-04-15T11:51:56.365Z,72.85
2023-04-15T11:54:42.976Z,72.84
2023-04-15T11:57:32.524Z,72.91
2023-04-15T12:00:20.997Z,72.96
2023-04-15T12:03:18.923Z,72.81
2023-04-15T12:06:20.690Z,72.84
2023-04-15T12:09:06.982Z,73.19
2023-04-15T12:11:58.289Z,73.21
2023-04-15T12:14:44.932Z,73.19
2023-04-15T12:17:31.754Z,73.28
2023-04-15T12:20:45.368Z,72.83
2023-04-15T12:23:31.838Z,73.02
2023-04-15T12:26:29.661Z,72.80
2023-04-15T12:29:17.464Z,72.94
2023-04-15T12:32:06.005Z,72.76
2023-04-15T12:34:56.847Z,73.00
2023-04-15T12:37:43.176Z,73.01
2023-04-15T12:40:29.911Z,73.08
2023-04-15T12:43:16.710Z,72.96
2023-04-15T12:46:02.950Z,73.05
2023-04-15T12:48:52.039Z,73.01
2023-04-15T12:51:38.096Z,73.18
2023-04-15T12:54:24.390Z,73.07
2023-04-15T12:57:11.199Z,73.15
2023-04-15T12:59:57.809Z,73.30
2023-04-15T13:02:44.928Z,73.54
2023-04-15T13:05:31.780Z,73.37
2023-04-15T13:08:19.438Z,73.36
2023-04-15T13:11:06.057Z,73.41
2023-04-15T13:13:52.971Z,73.74
2023-04-15T13:16:39.864Z,73.63
2023-04-15T13:19:26.971Z,73.29
2023-04-15T13:22:15.147Z,73.05
2023-04-15T13:25:01.339Z,73.36
2023-04-15T13:27:48.218Z,73.09
2023-04-15T13:30:37.593Z,73.08
2023-04-15T13:33:23.927Z,72.84
2023-04-15T13:36:10.437Z,72.27
2023-04-15T13:38:57.813Z,72.72
2023-04-15T13:41:44.289Z,72.36
2023-04-15T13:44:30.857Z,72.13
2023-04-15T13:47:19.782Z,72.29
2023-04-15T13:50:07.075Z,72.03
2023-04-15T13:52:53.422Z,72.20
2023-04-15T13:55:43.234Z,72.74
2023-04-15T13:58:29.466Z,73.13
2023-04-15T14:01:16.435Z,73.27
2023-04-15T14:04:03.168Z,73.50
2023-04-15T14:06:51.028Z,73.59
2023-04-15T14:09:43.002Z,73.53
2023-04-15T14:12:29.966Z,73.81
2023-04-15T14:15:16.342Z,73.91
2023-04-15T14:18:02.736Z,73.99
2023-04-15T14:20:49.460Z,74.05
2023-04-15T14:23:36.136Z,74.07
2023-04-15T14:26:22.336Z,73.94
2023-04-15T14:29:08.728Z,73.68
2023-04-15T14:32:07.678Z,73.54
2023-04-15T14:34:59.117Z,73.19
2023-04-15T14:37:45.753Z,73.42
2023-04-15T14:40:33.832Z,73.22
2023-04-15T14:43:21.407Z,73.29
2023-04-15T14:46:08.612Z,73.22
2023-04-15T14:48:55.003Z,73.27
2023-04-15T14:51:41.888Z,73.97
2023-04-15T14:54:28.309Z,74.52
2023-04-15T14:57:15.533Z,74.48
2023-04-15T15:00:03.021Z,74.83
2023-04-15T15:02:49.739Z,74.83
2023-04-15T15:05:36.537Z,75.05
2023-04-15T15:08:23.271Z,75.43
2023-04-15T15:11:10.070Z,75.66
2023-04-15T15:13:57.069Z,75.57
2023-04-15T15:16:44.180Z,75.70
2023-04-15T15:19:30.906Z,75.78
2023-04-15T15:22:19.422Z,75.86
2023-04-15T15:25:07.656Z,75.68
2023-04-15T15:27:53.915Z,75.77
2023-04-15T15:30:40.248Z,75.86
2023-04-15T15:33:28.582Z,75.66
2023-04-15T15:36:16.351Z,76.05
2023-04-15T15:39:04.945Z,75.97
2023-04-15T15:41:52.051Z,76.22
2023-04-15T15:44:38.934Z,76.03
2023-04-15T15:47:28.708Z,76.25
2023-04-15T15:50:15.483Z,76.18
2023-04-15T15:53:01.737Z,76.38
2023-04-15T15:55:48.428Z,76.44
2023-04-15T15:58:34.866Z,76.39
2023-04-15T16:01:21.996Z,76.61
2023-04-15T16:04:08.404Z,76.36
2023-04-15T16:06:55.340Z,76.57
2023-04-15T16:09:42.659Z,76.57
2023-04-15T16:12:28.983Z,76.55
2023-04-15T16:15:15.721Z,76.54
2023-04-15T16:18:02.265Z,76.71
2023-04-15T16:20:49.014Z,76.49
2023-04-15T16:23:37.008Z,76.46
2023-04-15T16:26:24.062Z,76.51
2023-04-15T16:29:10.259Z,76.67
2023-04-15T16:31:56.931Z,76.87
2023-04-15T16:34:43.901Z,76.74
2023-04-15T16:37:32.874Z,76.69
2023-04-15T16:40:19.499Z,76.80
2023-04-15T16:43:08.196Z,77.13
2023-04-15T16:45:54.752Z,77.06
2023-04-15T16:48:41.080Z,77.41
2023-04-15T16:51:30.531Z,77.63
2023-04-15T16:54:17.064Z,77.78
2023-04-15T16:57:04.067Z,77.55
2023-04-15T16:59:51.559Z,77.87
2023-04-15T17:02:38.187Z,77.83
2023-04-15T17:05:25.219Z,78.02
2023-04-15T17:08:11.926Z,78.10
2023-04-15T17:10:58.842Z,78.15
2023-04-15T17:13:45.851Z,78.35
2023-04-15T17:16:32.759Z,78.33
2023-04-15T17:19:18.979Z,77.93
2023-04-15T17:22:05.655Z,78.26
2023-04-15T17:24:52.367Z,78.38
2023-04-15T17:27:38.766Z,78.29
2023-04-15T17:30:25.600Z,78.44
2023-04-15T17:33:57.393Z,78.23
2023-04-15T17:36:18.763Z,78.65
2023-04-15T17:39:05.718Z,78.59
2023-04-15T17:41:52.330Z,78.91
2023-04-15T17:44:38.712Z,78.85
2023-04-15T17:47:25.302Z,79.38
2023-04-15T17:50:11.742Z,79.31
2023-04-15T17:52:58.464Z,79.60
2023-04-15T17:55:45.607Z,79.67
2023-04-15T17:58:31.911Z,79.86
2023-04-15T18:01:18.709Z,79.88
2023-04-15T18:04:05.945Z,80.01
2023-04-15T18:06:52.835Z,79.85
2023-04-15T18:09:39.577Z,79.95
2023-04-15T18:12:25.965Z,80.03
2023-04-15T18:15:14.515Z,79.76
2023-04-15T18:18:01.176Z,80.23
2023-04-15T18:20:47.802Z,80.10
2023-04-15T18:23:34.513Z,80.07
2023-04-15T18:26:22.065Z,80.10
2023-04-15T18:29:08.952Z,79.83
2023-04-15T18:31:56.054Z,79.99
2023-04-15T18:34:43.029Z,79.89
2023-04-15T18:37:29.485Z,79.74
2023-04-15T18:40:16.290Z,79.91
2023-04-15T18:43:02.628Z,79.47
2023-04-15T18:45:49.297Z,79.61
2023-04-15T18:48:35.938Z,79.83
2023-04-15T18:51:22.720Z,79.97
2023-04-15T18:54:09.273Z,80.05
2023-04-15T18:56:56.518Z,79.60
2023-04-15T18:59:43.542Z,79.42
2023-04-15T19:02:30.076Z,79.48
2023-04-15T19:05:16.646Z,79.52
2023-04-15T19:08:02.908Z,79.63
2023-04-15T19:10:50.074Z,79.71
2023-04-15T19:13:36.460Z,79.57
2023-04-15T19:16:23.011Z,79.89
2023-04-15T19:19:10.188Z,79.97
2023-04-15T19:21:57.706Z,79.79
2023-04-15T19:24:46.859Z,79.93
2023-04-15T19:27:33.194Z,79.82
2023-04-15T19:30:21.418Z,80.25
2023-04-15T19:33:07.832Z,79.86
2023-04-15T19:35:54.636Z,80.04
2023-04-15T19:38:41.029Z,80.01
2023-04-15T19:41:28.048Z,79.98
2023-04-15T19:44:15.026Z,80.00
2023-04-15T19:47:01.868Z,79.78
2023-04-15T19:49:49.491Z,80.11
2023-04-15T19:52:37.967Z,79.74
2023-04-15T19:55:24.534Z,79.92
2023-04-15T19:58:11.457Z,79.82
2023-04-15T20:00:58.572Z,79.71
2023-04-15T20:03:45.027Z,79.92
2023-04-15T20:06:31.946Z,80.06
2023-04-15T20:09:18.310Z,80.21
2023-04-15T20:12:49.414Z,79.83
2023-04-15T20:15:12.221Z,79.89
2023-04-15T20:17:59.060Z,79.81
2023-04-15T20:20:46.379Z,79.42
2023-04-15T20:23:32.892Z,79.88
2023-04-15T20:26:19.727Z,79.94
2023-04-15T20:29:06.490Z,79.76
2023-04-15T20:31:53.332Z,79.24
2023-04-15T20:34:43.071Z,79.48
2023-04-15T20:37:30.994Z,79.70
2023-04-15T20:40:17.305Z,80.04
2023-04-15T20:43:03.607Z,79.76
2023-04-15T20:45:50.838Z,79.85
2023-04-15T20:48:37.423Z,79.73
2023-04-15T20:51:24.085Z,79.35
2023-04-15T20:54:11.082Z,79.75
2023-04-15T20:56:58.219Z,79.72
2023-04-15T20:59:44.394Z,80.00
2023-04-15T21:02:31.540Z,79.58
2023-04-15T21:05:18.113Z,79.39
2023-04-15T21:08:04.341Z,79.38
2023-04-15T21:10:51.202Z,79.48
2023-04-15T21:13:37.976Z,79.35
2023-04-15T21:16:24.670Z,79.76
2023-04-15T21:19:11.022Z,79.25
2023-04-15T21:21:57.427Z,79.78
2023-04-15T21:24:43.676Z,79.49
2023-04-15T21:27:30.682Z,79.51
2023-04-15T21:30:17.264Z,79.41
2023-04-15T21:33:04.161Z,79.62
2023-04-15T21:35:51.336Z,79.37
2023-04-15T21:38:38.170Z,79.46
2023-04-15T21:41:24.748Z,79.67
2023-04-15T21:44:13.986Z,79.25
2023-04-15T21:47:02.105Z,79.72
2023-04-15T21:49:48.823Z,79.66
2023-04-15T21:52:35.597Z,79.24
2023-04-15T21:55:22.324Z,79.66
2023-04-15T21:58:08.643Z,79.54
2023-04-15T22:01:00.088Z,79.48
2023-04-15T22:03:46.962Z,79.36
2023-04-15T22:06:33.842Z,79.07
2023-04-15T22:09:20.646Z,79.59
2023-04-15T22:12:07.469Z,79.29
2023-04-15T22:14:55.759Z,79.17
2023-04-15T22:17:43.024Z,79.32
2023-04-15T22:20:29.673Z,79.01
2023-04-15T22:23:17.510Z,79.38
2023-04-15T22:26:05.493Z,79.40
2023-04-15T22:28:51.881Z,79.36
2023-04-15T22:31:38.318Z,79.19
2023-04-15T22:34:24.647Z,79.04
2023-04-15T22:37:11.809Z,79.13
2023-04-15T22:39:59.054Z,79.03
2023-04-15T22:42:46.258Z,78.84
2023-04-15T22:45:32.900Z,79.23
2023-04-15T22:48:19.328Z,79.21
2023-04-15T22:51:06.422Z,78.88
2023-04-15T22:53:53.277Z,79.49
2023-04-15T22:56:39.791Z,79.25
2023-04-15T22:59:26.174Z,78.82
2023-04-15T23:02:13.131Z,79.04
2023-04-15T23:05:00.164Z,78.93
2023-04-15T23:07:49.968Z,78.96
2023-04-15T23:10:36.620Z,78.73
2023-04-15T23:13:23.150Z,79.15
2023-04-15T23:16:09.760Z,78.61
2023-04-15T23:18:56.180Z,79.06
2023-04-15T23:21:42.680Z,79.06
2023-04-15T23:24:29.246Z,79.01
2023-04-15T23:27:17.705Z,78.60
2023-04-15T23:30:05.303Z,78.89
2023-04-15T23:32:51.858Z,78.94
2023-04-15T23:35:38.351Z,78.83
2023-04-15T23:38:24.832Z,78.90
2023-04-15T23:41:12.185Z,78.95
2023-04-15T23:43:58.843Z,78.85
2023-04-15T23:46:45.687Z,78.71
2023-04-15T23:49:32.136Z,79.04
2023-04-15T23:52:19.161Z,79.16
2023-04-15T23:55:06.803Z,79.35
2023-04-15T23:57:53.402Z,79.23
